sensor_id;sensor_type;location;lat;lon;timestamp;P1;durP1;ratioP1;P2;durP2;ratioP2
52868;SDS011;39100;53.480;6.158;2023-04-21T00:02:00;12.88;;;5.95;;
52868;SDS011;39100;53.480;6.158;2023-04-21T00:04:26;17.27;;;6.43;;
52868;SDS011;39100;53.480;6.158;2023-04-21T00:06:52;15.63;;;6.43;;
52868;SDS011;39100;53.480;6.158;2023-04-21T00:09:18;12.80;;;6.10;;
52868;SDS011;39100;53.480;6.158;2023-04-21T00:11:45;12.30;;;6.70;;
52868;SDS011;39100;53.480;6.158;2023-04-21T00:14:10;12.40;;;7.05;;
52868;SDS011;39100;53.480;6.158;2023-04-21T00:16:36;14.30;;;7.25;;
52868;SDS011;39100;53.480;6.158;2023-04-21T00:19:01;10.13;;;5.93;;
52868;SDS011;39100;53.480;6.158;2023-04-21T00:21:31;15.13;;;6.07;;
52868;SDS011;39100;53.480;6.158;2023-04-21T00:23:57;12.45;;;6.10;;
52868;SDS011;39100;53.480;6.158;2023-04-21T00:26:22;14.13;;;5.97;;
52868;SDS011;39100;53.480;6.158;2023-04-21T00:28:48;13.00;;;5.63;;
52868;SDS011;39100;53.480;6.158;2023-04-21T00:31:14;10.07;;;5.22;;
52868;SDS011;39100;53.480;6.158;2023-04-21T00:33:40;9.70;;;5.10;;
52868;SDS011;39100;53.480;6.158;2023-04-21T00:36:05;11.57;;;6.18;;
52868;SDS011;39100;53.480;6.158;2023-04-21T00:38:31;17.83;;;6.85;;
52868;SDS011;39100;53.480;6.158;2023-04-21T00:40:56;10.18;;;5.78;;
52868;SDS011;39100;53.480;6.158;2023-04-21T00:43:22;10.45;;;5.95;;
52868;SDS011;39100;53.480;6.158;2023-04-21T00:45:49;13.30;;;7.07;;
52868;SDS011;39100;53.480;6.158;2023-04-21T00:48:15;7.78;;;4.57;;
52868;SDS011;39100;53.480;6.158;2023-04-21T00:50:42;13.70;;;6.85;;
52868;SDS011;39100;53.480;6.158;2023-04-21T00:53:08;13.40;;;6.53;;
52868;SDS011;39100;53.480;6.158;2023-04-21T00:55:35;13.00;;;5.65;;
52868;SDS011;39100;53.480;6.158;2023-04-21T00:58:01;15.90;;;6.55;;
52868;SDS011;39100;53.480;6.158;2023-04-21T01:00:27;10.48;;;5.55;;
52868;SDS011;39100;53.480;6.158;2023-04-21T01:02:53;20.13;;;6.32;;
52868;SDS011;39100;53.480;6.158;2023-04-21T01:05:19;15.35;;;6.88;;
52868;SDS011;39100;53.480;6.158;2023-04-21T01:07:44;13.35;;;7.05;;
52868;SDS011;39100;53.480;6.158;2023-04-21T01:10:10;13.55;;;6.43;;
52868;SDS011;39100;53.480;6.158;2023-04-21T01:12:45;11.50;;;6.90;;
52868;SDS011;39100;53.480;6.158;2023-04-21T01:15:15;9.10;;;6.35;;
52868;SDS011;39100;53.480;6.158;2023-04-21T01:17:41;12.30;;;7.97;;
52868;SDS011;39100;53.480;6.158;2023-04-21T01:20:08;14.65;;;6.97;;
52868;SDS011;39100;53.480;6.158;2023-04-21T01:22:36;15.25;;;6.15;;
52868;SDS011;39100;53.480;6.158;2023-04-21T01:25:02;17.30;;;6.60;;
52868;SDS011;39100;53.480;6.158;2023-04-21T01:27:28;12.68;;;6.38;;
52868;SDS011;39100;53.480;6.158;2023-04-21T01:29:54;11.65;;;5.93;;
52868;SDS011;39100;53.480;6.158;2023-04-21T01:32:24;12.45;;;6.07;;
52868;SDS011;39100;53.480;6.158;2023-04-21T01:34:53;13.02;;;6.28;;
52868;SDS011;39100;53.480;6.158;2023-04-21T01:37:21;8.48;;;5.18;;
52868;SDS011;39100;53.480;6.158;2023-04-21T01:39:50;14.98;;;7.03;;
52868;SDS011;39100;53.480;6.158;2023-04-21T01:42:18;10.93;;;5.45;;
52868;SDS011;39100;53.480;6.158;2023-04-21T01:44:45;21.33;;;7.72;;
52868;SDS011;39100;53.480;6.158;2023-04-21T01:47:11;10.95;;;6.13;;
52868;SDS011;39100;53.480;6.158;2023-04-21T01:49:37;11.90;;;5.93;;
52868;SDS011;39100;53.480;6.158;2023-04-21T01:52:02;16.27;;;6.15;;
52868;SDS011;39100;53.480;6.158;2023-04-21T01:54:28;12.30;;;6.70;;
52868;SDS011;39100;53.480;6.158;2023-04-21T01:56:54;17.33;;;6.78;;
52868;SDS011;39100;53.480;6.158;2023-04-21T01:59:20;15.43;;;6.38;;
52868;SDS011;39100;53.480;6.158;2023-04-21T02:01:45;10.93;;;5.47;;
52868;SDS011;39100;53.480;6.158;2023-04-21T02:04:11;11.60;;;5.68;;
52868;SDS011;39100;53.480;6.158;2023-04-21T02:06:37;14.77;;;6.93;;
52868;SDS011;39100;53.480;6.158;2023-04-21T02:09:02;15.65;;;8.43;;
52868;SDS011;39100;53.480;6.158;2023-04-21T02:11:28;23.35;;;8.38;;
52868;SDS011;39100;53.480;6.158;2023-04-21T02:13:54;14.05;;;7.57;;
52868;SDS011;39100;53.480;6.158;2023-04-21T02:16:20;16.63;;;7.38;;
52868;SDS011;39100;53.480;6.158;2023-04-21T02:18:50;16.27;;;6.47;;
52868;SDS011;39100;53.480;6.158;2023-04-21T02:21:20;18.52;;;7.22;;
52868;SDS011;39100;53.480;6.158;2023-04-21T02:23:46;16.58;;;7.38;;
52868;SDS011;39100;53.480;6.158;2023-04-21T02:26:12;15.70;;;7.15;;
52868;SDS011;39100;53.480;6.158;2023-04-21T02:28:38;18.63;;;7.93;;
52868;SDS011;39100;53.480;6.158;2023-04-21T02:31:03;13.90;;;7.15;;
52868;SDS011;39100;53.480;6.158;2023-04-21T02:33:29;15.40;;;7.20;;
52868;SDS011;39100;53.480;6.158;2023-04-21T02:35:55;16.45;;;6.25;;
52868;SDS011;39100;53.480;6.158;2023-04-21T02:38:20;12.70;;;5.95;;
52868;SDS011;39100;53.480;6.158;2023-04-21T02:40:46;17.10;;;6.97;;
52868;SDS011;39100;53.480;6.158;2023-04-21T02:43:15;12.65;;;6.82;;
52868;SDS011;39100;53.480;6.158;2023-04-21T02:45:41;13.80;;;6.28;;
52868;SDS011;39100;53.480;6.158;2023-04-21T02:48:06;17.50;;;6.88;;
52868;SDS011;39100;53.480;6.158;2023-04-21T02:50:32;15.50;;;6.47;;
52868;SDS011;39100;53.480;6.158;2023-04-21T02:52:57;20.90;;;7.85;;
52868;SDS011;39100;53.480;6.158;2023-04-21T02:55:23;15.80;;;6.13;;
52868;SDS011;39100;53.480;6.158;2023-04-21T02:57:49;13.10;;;6.03;;
52868;SDS011;39100;53.480;6.158;2023-04-21T03:00:14;12.82;;;6.32;;
52868;SDS011;39100;53.480;6.158;2023-04-21T03:02:40;11.60;;;5.97;;
52868;SDS011;39100;53.480;6.158;2023-04-21T03:05:06;17.45;;;7.65;;
52868;SDS011;39100;53.480;6.158;2023-04-21T03:07:32;13.75;;;7.40;;
52868;SDS011;39100;53.480;6.158;2023-04-21T03:09:58;19.13;;;6.75;;
52868;SDS011;39100;53.480;6.158;2023-04-21T03:12:24;17.38;;;7.35;;
52868;SDS011;39100;53.480;6.158;2023-04-21T03:14:49;14.77;;;6.75;;
52868;SDS011;39100;53.480;6.158;2023-04-21T03:17:15;12.55;;;6.88;;
52868;SDS011;39100;53.480;6.158;2023-04-21T03:19:40;19.45;;;8.40;;
52868;SDS011;39100;53.480;6.158;2023-04-21T03:22:06;15.73;;;7.70;;
52868;SDS011;39100;53.480;6.158;2023-04-21T03:24:31;15.35;;;6.70;;
52868;SDS011;39100;53.480;6.158;2023-04-21T03:26:57;20.55;;;8.23;;
52868;SDS011;39100;53.480;6.158;2023-04-21T03:29:23;14.63;;;7.32;;
52868;SDS011;39100;53.480;6.158;2023-04-21T03:31:49;15.50;;;6.70;;
52868;SDS011;39100;53.480;6.158;2023-04-21T03:34:14;10.23;;;5.50;;
52868;SDS011;39100;53.480;6.158;2023-04-21T03:36:40;10.75;;;6.15;;
52868;SDS011;39100;53.480;6.158;2023-04-21T03:39:06;13.27;;;6.05;;
52868;SDS011;39100;53.480;6.158;2023-04-21T03:41:32;10.52;;;5.95;;
52868;SDS011;39100;53.480;6.158;2023-04-21T03:43:58;13.93;;;7.15;;
52868;SDS011;39100;53.480;6.158;2023-04-21T03:46:23;14.38;;;6.72;;
52868;SDS011;39100;53.480;6.158;2023-04-21T03:48:49;12.20;;;6.38;;
52868;SDS011;39100;53.480;6.158;2023-04-21T03:51:15;13.30;;;6.35;;
52868;SDS011;39100;53.480;6.158;2023-04-21T03:53:40;13.18;;;6.22;;
52868;SDS011;39100;53.480;6.158;2023-04-21T03:56:06;9.95;;;5.47;;
52868;SDS011;39100;53.480;6.158;2023-04-21T03:58:32;11.88;;;6.35;;
52868;SDS011;39100;53.480;6.158;2023-04-21T04:00:58;12.43;;;6.38;;
52868;SDS011;39100;53.480;6.158;2023-04-21T04:03:23;10.63;;;5.53;;
52868;SDS011;39100;53.480;6.158;2023-04-21T04:05:49;15.07;;;6.07;;
52868;SDS011;39100;53.480;6.158;2023-04-21T04:08:14;10.02;;;6.00;;
52868;SDS011;39100;53.480;6.158;2023-04-21T04:10:40;13.10;;;6.15;;
52868;SDS011;39100;53.480;6.158;2023-04-21T04:13:05;13.02;;;6.45;;
52868;SDS011;39100;53.480;6.158;2023-04-21T04:15:31;13.60;;;6.80;;
52868;SDS011;39100;53.480;6.158;2023-04-21T04:17:57;12.23;;;6.18;;
52868;SDS011;39100;53.480;6.158;2023-04-21T04:20:23;13.25;;;6.15;;
52868;SDS011;39100;53.480;6.158;2023-04-21T04:22:48;13.10;;;6.18;;
52868;SDS011;39100;53.480;6.158;2023-04-21T04:25:14;12.45;;;6.63;;
52868;SDS011;39100;53.480;6.158;2023-04-21T04:27:41;10.20;;;5.60;;
52868;SDS011;39100;53.480;6.158;2023-04-21T04:30:08;9.10;;;5.53;;
52868;SDS011;39100;53.480;6.158;2023-04-21T04:32:35;8.10;;;5.65;;
52868;SDS011;39100;53.480;6.158;2023-04-21T04:35:03;18.05;;;5.80;;
52868;SDS011;39100;53.480;6.158;2023-04-21T04:37:34;11.95;;;5.35;;
52868;SDS011;39100;53.480;6.158;2023-04-21T04:40:01;9.98;;;5.85;;
52868;SDS011;39100;53.480;6.158;2023-04-21T04:42:29;15.57;;;6.13;;
52868;SDS011;39100;53.480;6.158;2023-04-21T04:44:57;9.70;;;5.40;;
52868;SDS011;39100;53.480;6.158;2023-04-21T04:47:23;16.67;;;6.47;;
52868;SDS011;39100;53.480;6.158;2023-04-21T04:49:49;10.38;;;5.93;;
52868;SDS011;39100;53.480;6.158;2023-04-21T04:52:14;10.35;;;5.78;;
52868;SDS011;39100;53.480;6.158;2023-04-21T04:54:40;16.85;;;6.53;;
52868;SDS011;39100;53.480;6.158;2023-04-21T04:57:06;9.77;;;5.97;;
52868;SDS011;39100;53.480;6.158;2023-04-21T04:59:31;11.05;;;5.88;;
52868;SDS011;39100;53.480;6.158;2023-04-21T05:01:57;11.10;;;5.38;;
52868;SDS011;39100;53.480;6.158;2023-04-21T05:04:22;11.30;;;6.28;;
52868;SDS011;39100;53.480;6.158;2023-04-21T05:06:48;10.05;;;6.00;;
52868;SDS011;39100;53.480;6.158;2023-04-21T05:09:14;9.18;;;5.65;;
52868;SDS011;39100;53.480;6.158;2023-04-21T05:11:40;10.38;;;6.03;;
52868;SDS011;39100;53.480;6.158;2023-04-21T05:14:05;12.30;;;5.90;;
52868;SDS011;39100;53.480;6.158;2023-04-21T05:16:31;11.55;;;6.07;;
52868;SDS011;39100;53.480;6.158;2023-04-21T05:18:59;8.40;;;4.88;;
52868;SDS011;39100;53.480;6.158;2023-04-21T05:21:26;10.13;;;5.53;;
52868;SDS011;39100;53.480;6.158;2023-04-21T05:23:55;9.95;;;5.25;;
52868;SDS011;39100;53.480;6.158;2023-04-21T05:26:23;13.07;;;5.30;;
52868;SDS011;39100;53.480;6.158;2023-04-21T05:28:49;11.55;;;5.22;;
52868;SDS011;39100;53.480;6.158;2023-04-21T05:31:15;13.02;;;5.93;;
52868;SDS011;39100;53.480;6.158;2023-04-21T05:33:41;13.35;;;6.60;;
52868;SDS011;39100;53.480;6.158;2023-04-21T05:36:06;9.63;;;6.10;;
52868;SDS011;39100;53.480;6.158;2023-04-21T05:38:36;7.68;;;5.30;;
52868;SDS011;39100;53.480;6.158;2023-04-21T05:41:02;9.27;;;5.82;;
52868;SDS011;39100;53.480;6.158;2023-04-21T05:43:28;11.73;;;5.70;;
52868;SDS011;39100;53.480;6.158;2023-04-21T05:45:53;9.70;;;5.57;;
52868;SDS011;39100;53.480;6.158;2023-04-21T05:48:19;14.35;;;5.85;;
52868;SDS011;39100;53.480;6.158;2023-04-21T05:50:45;8.75;;;5.05;;
52868;SDS011;39100;53.480;6.158;2023-04-21T05:53:10;7.78;;;4.47;;
52868;SDS011;39100;53.480;6.158;2023-04-21T05:55:36;12.63;;;5.57;;
52868;SDS011;39100;53.480;6.158;2023-04-21T05:58:02;9.80;;;4.88;;
52868;SDS011;39100;53.480;6.158;2023-04-21T06:00:28;8.05;;;4.78;;
52868;SDS011;39100;53.480;6.158;2023-04-21T06:02:54;9.13;;;4.40;;
52868;SDS011;39100;53.480;6.158;2023-04-21T06:05:19;8.90;;;4.43;;
52868;SDS011;39100;53.480;6.158;2023-04-21T06:07:45;8.82;;;4.32;;
52868;SDS011;39100;53.480;6.158;2023-04-21T06:10:11;8.68;;;4.20;;
52868;SDS011;39100;53.480;6.158;2023-04-21T06:12:37;10.05;;;4.50;;
52868;SDS011;39100;53.480;6.158;2023-04-21T06:15:03;8.65;;;4.80;;
52868;SDS011;39100;53.480;6.158;2023-04-21T06:17:29;9.23;;;4.13;;
52868;SDS011;39100;53.480;6.158;2023-04-21T06:19:55;8.38;;;4.38;;
52868;SDS011;39100;53.480;6.158;2023-04-21T06:22:24;5.70;;;5.00;;
52868;SDS011;39100;53.480;6.158;2023-04-21T06:24:50;8.02;;;3.70;;
52868;SDS011;39100;53.480;6.158;2023-04-21T06:27:15;7.57;;;4.10;;
52868;SDS011;39100;53.480;6.158;2023-04-21T06:29:41;5.90;;;3.70;;
52868;SDS011;39100;53.480;6.158;2023-04-21T06:32:08;13.15;;;5.10;;
52868;SDS011;39100;53.480;6.158;2023-04-21T06:34:34;6.82;;;3.85;;
52868;SDS011;39100;53.480;6.158;2023-04-21T06:36:59;7.45;;;5.00;;
52868;SDS011;39100;53.480;6.158;2023-04-21T06:39:25;8.35;;;4.88;;
52868;SDS011;39100;53.480;6.158;2023-04-21T06:41:51;9.68;;;5.00;;
52868;SDS011;39100;53.480;6.158;2023-04-21T06:44:17;9.45;;;5.30;;
52868;SDS011;39100;53.480;6.158;2023-04-21T06:46:42;10.15;;;4.53;;
52868;SDS011;39100;53.480;6.158;2023-04-21T06:49:08;12.85;;;4.78;;
52868;SDS011;39100;53.480;6.158;2023-04-21T06:51:34;11.45;;;4.95;;
52868;SDS011;39100;53.480;6.158;2023-04-21T06:54:01;12.88;;;5.22;;
52868;SDS011;39100;53.480;6.158;2023-04-21T06:56:27;11.25;;;5.18;;
52868;SDS011;39100;53.480;6.158;2023-04-21T06:58:54;7.55;;;4.22;;
52868;SDS011;39100;53.480;6.158;2023-04-21T07:01:20;8.05;;;3.58;;
52868;SDS011;39100;53.480;6.158;2023-04-21T07:03:48;9.10;;;4.75;;
52868;SDS011;39100;53.480;6.158;2023-04-21T07:06:14;10.55;;;5.15;;
52868;SDS011;39100;53.480;6.158;2023-04-21T07:08:40;12.82;;;5.15;;
52868;SDS011;39100;53.480;6.158;2023-04-21T07:11:06;11.73;;;4.53;;
52868;SDS011;39100;53.480;6.158;2023-04-21T07:13:31;8.95;;;5.55;;
52868;SDS011;39100;53.480;6.158;2023-04-21T07:15:57;11.05;;;6.82;;
52868;SDS011;39100;53.480;6.158;2023-04-21T07:18:22;12.10;;;5.07;;
52868;SDS011;39100;53.480;6.158;2023-04-21T07:20:48;7.88;;;4.97;;
52868;SDS011;39100;53.480;6.158;2023-04-21T07:23:14;9.02;;;5.22;;
52868;SDS011;39100;53.480;6.158;2023-04-21T07:25:39;9.77;;;5.43;;
52868;SDS011;39100;53.480;6.158;2023-04-21T07:28:05;5.32;;;4.40;;
52868;SDS011;39100;53.480;6.158;2023-04-21T07:30:30;5.78;;;4.45;;
52868;SDS011;39100;53.480;6.158;2023-04-21T07:32:56;9.23;;;5.50;;
52868;SDS011;39100;53.480;6.158;2023-04-21T07:35:22;9.10;;;4.40;;
52868;SDS011;39100;53.480;6.158;2023-04-21T07:37:48;7.10;;;3.80;;
52868;SDS011;39100;53.480;6.158;2023-04-21T07:40:13;7.75;;;4.40;;
52868;SDS011;39100;53.480;6.158;2023-04-21T07:42:39;8.32;;;4.47;;
52868;SDS011;39100;53.480;6.158;2023-04-21T07:45:05;9.63;;;3.85;;
52868;SDS011;39100;53.480;6.158;2023-04-21T07:47:31;7.78;;;4.60;;
52868;SDS011;39100;53.480;6.158;2023-04-21T07:49:57;8.65;;;4.32;;
52868;SDS011;39100;53.480;6.158;2023-04-21T07:52:22;6.40;;;4.40;;
52868;SDS011;39100;53.480;6.158;2023-04-21T07:54:48;11.55;;;4.65;;
52868;SDS011;39100;53.480;6.158;2023-04-21T07:57:14;7.75;;;4.60;;
52868;SDS011;39100;53.480;6.158;2023-04-21T07:59:40;8.55;;;4.85;;
52868;SDS011;39100;53.480;6.158;2023-04-21T08:02:06;8.13;;;3.92;;
52868;SDS011;39100;53.480;6.158;2023-04-21T08:04:32;6.22;;;3.72;;
52868;SDS011;39100;53.480;6.158;2023-04-21T08:06:58;7.97;;;4.40;;
52868;SDS011;39100;53.480;6.158;2023-04-21T08:09:24;7.07;;;4.13;;
52868;SDS011;39100;53.480;6.158;2023-04-21T08:11:50;6.28;;;3.90;;
52868;SDS011;39100;53.480;6.158;2023-04-21T08:14:16;5.80;;;4.07;;
52868;SDS011;39100;53.480;6.158;2023-04-21T08:16:42;7.80;;;4.38;;
52868;SDS011;39100;53.480;6.158;2023-04-21T08:19:08;10.32;;;4.68;;
52868;SDS011;39100;53.480;6.158;2023-04-21T08:21:34;7.90;;;4.10;;
52868;SDS011;39100;53.480;6.158;2023-04-21T08:24:00;11.00;;;4.75;;
52868;SDS011;39100;53.480;6.158;2023-04-21T08:26:27;7.18;;;3.78;;
52868;SDS011;39100;53.480;6.158;2023-04-21T08:28:54;7.63;;;3.92;;
52868;SDS011;39100;53.480;6.158;2023-04-21T08:31:20;7.15;;;4.63;;
52868;SDS011;39100;53.480;6.158;2023-04-21T08:33:46;7.13;;;4.05;;
52868;SDS011;39100;53.480;6.158;2023-04-21T08:36:11;5.13;;;3.33;;
52868;SDS011;39100;53.480;6.158;2023-04-21T08:38:37;7.78;;;3.70;;
52868;SDS011;39100;53.480;6.158;2023-04-21T08:41:03;5.07;;;3.15;;
52868;SDS011;39100;53.480;6.158;2023-04-21T08:43:29;6.05;;;4.25;;
52868;SDS011;39100;53.480;6.158;2023-04-21T08:45:55;3.80;;;2.92;;
52868;SDS011;39100;53.480;6.158;2023-04-21T08:48:21;6.65;;;3.45;;
52868;SDS011;39100;53.480;6.158;2023-04-21T08:50:49;4.82;;;3.47;;
52868;SDS011;39100;53.480;6.158;2023-04-21T08:53:15;10.98;;;4.57;;
52868;SDS011;39100;53.480;6.158;2023-04-21T08:55:41;8.05;;;3.20;;
52868;SDS011;39100;53.480;6.158;2023-04-21T08:58:07;9.20;;;3.47;;
52868;SDS011;39100;53.480;6.158;2023-04-21T09:00:36;7.60;;;3.55;;
52868;SDS011;39100;53.480;6.158;2023-04-21T09:03:02;7.63;;;3.78;;
52868;SDS011;39100;53.480;6.158;2023-04-21T09:05:30;4.97;;;3.00;;
52868;SDS011;39100;53.480;6.158;2023-04-21T09:08:10;8.07;;;3.47;;
52868;SDS011;39100;53.480;6.158;2023-04-21T09:10:46;7.30;;;3.75;;
52868;SDS011;39100;53.480;6.158;2023-04-21T09:13:13;5.55;;;3.80;;
52868;SDS011;39100;53.480;6.158;2023-04-21T09:15:40;8.18;;;3.28;;
52868;SDS011;39100;53.480;6.158;2023-04-21T09:18:14;5.97;;;3.13;;
52868;SDS011;39100;53.480;6.158;2023-04-21T09:20:41;6.40;;;3.10;;
52868;SDS011;39100;53.480;6.158;2023-04-21T09:23:08;8.00;;;3.22;;
52868;SDS011;39100;53.480;6.158;2023-04-21T09:25:37;4.03;;;3.10;;
52868;SDS011;39100;53.480;6.158;2023-04-21T09:28:06;6.50;;;3.40;;
52868;SDS011;39100;53.480;6.158;2023-04-21T09:30:36;5.57;;;3.03;;
52868;SDS011;39100;53.480;6.158;2023-04-21T09:33:02;6.53;;;3.10;;
52868;SDS011;39100;53.480;6.158;2023-04-21T09:35:29;4.25;;;2.78;;
52868;SDS011;39100;53.480;6.158;2023-04-21T09:37:58;6.15;;;2.80;;
52868;SDS011;39100;53.480;6.158;2023-04-21T09:40:25;4.82;;;2.60;;
52868;SDS011;39100;53.480;6.158;2023-04-21T09:42:52;3.50;;;2.90;;
52868;SDS011;39100;53.480;6.158;2023-04-21T09:45:17;3.63;;;2.83;;
52868;SDS011;39100;53.480;6.158;2023-04-21T09:47:43;5.40;;;3.08;;
52868;SDS011;39100;53.480;6.158;2023-04-21T09:50:15;4.80;;;3.40;;
52868;SDS011;39100;53.480;6.158;2023-04-21T09:52:41;7.40;;;2.75;;
52868;SDS011;39100;53.480;6.158;2023-04-21T09:55:12;8.70;;;3.00;;
52868;SDS011;39100;53.480;6.158;2023-04-21T09:57:38;5.57;;;2.72;;
52868;SDS011;39100;53.480;6.158;2023-04-21T10:00:07;9.20;;;3.30;;
52868;SDS011;39100;53.480;6.158;2023-04-21T10:02:35;6.32;;;3.28;;
52868;SDS011;39100;53.480;6.158;2023-04-21T10:05:08;5.53;;;3.65;;
52868;SDS011;39100;53.480;6.158;2023-04-21T10:07:35;9.52;;;3.28;;
52868;SDS011;39100;53.480;6.158;2023-04-21T10:10:00;6.47;;;3.05;;
52868;SDS011;39100;53.480;6.158;2023-04-21T10:12:26;11.57;;;4.00;;
52868;SDS011;39100;53.480;6.158;2023-04-21T10:14:53;6.63;;;3.40;;
52868;SDS011;39100;53.480;6.158;2023-04-21T10:17:22;8.18;;;3.50;;
52868;SDS011;39100;53.480;6.158;2023-04-21T10:19:52;6.72;;;3.90;;
52868;SDS011;39100;53.480;6.158;2023-04-21T10:24:54;12.35;;;4.10;;
52868;SDS011;39100;53.480;6.158;2023-04-21T10:27:34;8.73;;;3.75;;
52868;SDS011;39100;53.480;6.158;2023-04-21T10:30:03;7.97;;;4.18;;
52868;SDS011;39100;53.480;6.158;2023-04-21T10:32:42;12.63;;;4.72;;
52868;SDS011;39100;53.480;6.158;2023-04-21T10:35:10;8.48;;;3.95;;
52868;SDS011;39100;53.480;6.158;2023-04-21T10:37:37;6.57;;;3.80;;
52868;SDS011;39100;53.480;6.158;2023-04-21T10:40:05;7.90;;;3.45;;
52868;SDS011;39100;53.480;6.158;2023-04-21T10:42:34;11.50;;;5.10;;
52868;SDS011;39100;53.480;6.158;2023-04-21T10:45:06;9.38;;;4.60;;
52868;SDS011;39100;53.480;6.158;2023-04-21T10:47:40;10.45;;;4.28;;
52868;SDS011;39100;53.480;6.158;2023-04-21T10:50:09;7.65;;;3.92;;
52868;SDS011;39100;53.480;6.158;2023-04-21T10:52:50;12.65;;;4.40;;
52868;SDS011;39100;53.480;6.158;2023-04-21T10:55:16;8.85;;;4.05;;
52868;SDS011;39100;53.480;6.158;2023-04-21T10:57:43;9.57;;;4.70;;
52868;SDS011;39100;53.480;6.158;2023-04-21T11:00:10;14.88;;;4.43;;
52868;SDS011;39100;53.480;6.158;2023-04-21T11:02:39;12.60;;;5.30;;
52868;SDS011;39100;53.480;6.158;2023-04-21T11:05:04;11.27;;;4.22;;
52868;SDS011;39100;53.480;6.158;2023-04-21T11:07:31;14.25;;;5.85;;
52868;SDS011;39100;53.480;6.158;2023-04-21T11:09:57;12.30;;;4.68;;
52868;SDS011;39100;53.480;6.158;2023-04-21T11:12:28;9.05;;;4.38;;
52868;SDS011;39100;53.480;6.158;2023-04-21T11:14:55;7.85;;;4.22;;
52868;SDS011;39100;53.480;6.158;2023-04-21T11:17:21;13.63;;;5.28;;
52868;SDS011;39100;53.480;6.158;2023-04-21T11:19:49;11.43;;;5.20;;
52868;SDS011;39100;53.480;6.158;2023-04-21T11:22:16;10.38;;;4.95;;
52868;SDS011;39100;53.480;6.158;2023-04-21T11:24:43;14.23;;;4.60;;
52868;SDS011;39100;53.480;6.158;2023-04-21T11:27:10;12.82;;;4.65;;
52868;SDS011;39100;53.480;6.158;2023-04-21T11:29:36;11.85;;;5.38;;
52868;SDS011;39100;53.480;6.158;2023-04-21T11:32:04;8.75;;;4.20;;
52868;SDS011;39100;53.480;6.158;2023-04-21T11:34:31;12.00;;;4.65;;
52868;SDS011;39100;53.480;6.158;2023-04-21T11:36:56;13.88;;;3.78;;
52868;SDS011;39100;53.480;6.158;2023-04-21T11:39:22;9.50;;;4.70;;
52868;SDS011;39100;53.480;6.158;2023-04-21T11:41:48;12.50;;;5.22;;
52868;SDS011;39100;53.480;6.158;2023-04-21T11:44:30;8.90;;;4.75;;
52868;SDS011;39100;53.480;6.158;2023-04-21T11:46:58;11.48;;;4.03;;
52868;SDS011;39100;53.480;6.158;2023-04-21T11:49:24;9.45;;;4.00;;
52868;SDS011;39100;53.480;6.158;2023-04-21T11:51:53;14.57;;;4.70;;
52868;SDS011;39100;53.480;6.158;2023-04-21T11:54:19;8.63;;;3.92;;
52868;SDS011;39100;53.480;6.158;2023-04-21T11:56:46;10.50;;;4.15;;
52868;SDS011;39100;53.480;6.158;2023-04-21T11:59:13;14.07;;;3.83;;
52868;SDS011;39100;53.480;6.158;2023-04-21T12:01:44;7.57;;;4.10;;
52868;SDS011;39100;53.480;6.158;2023-04-21T12:04:14;10.13;;;4.32;;
52868;SDS011;39100;53.480;6.158;2023-04-21T12:06:55;13.00;;;4.68;;
52868;SDS011;39100;53.480;6.158;2023-04-21T12:09:20;7.60;;;3.78;;
52868;SDS011;39100;53.480;6.158;2023-04-21T12:11:49;7.60;;;3.83;;
52868;SDS011;39100;53.480;6.158;2023-04-21T12:14:17;7.60;;;4.28;;
52868;SDS011;39100;53.480;6.158;2023-04-21T12:16:46;6.43;;;3.05;;
52868;SDS011;39100;53.480;6.158;2023-04-21T12:19:21;7.82;;;3.83;;
52868;SDS011;39100;53.480;6.158;2023-04-21T12:21:54;13.60;;;4.07;;
52868;SDS011;39100;53.480;6.158;2023-04-21T12:24:23;10.15;;;4.10;;
52868;SDS011;39100;53.480;6.158;2023-04-21T12:26:48;12.95;;;4.35;;
52868;SDS011;39100;53.480;6.158;2023-04-21T12:29:14;7.32;;;3.45;;
52868;SDS011;39100;53.480;6.158;2023-04-21T12:31:40;8.15;;;3.60;;
52868;SDS011;39100;53.480;6.158;2023-04-21T12:34:05;7.25;;;4.75;;
52868;SDS011;39100;53.480;6.158;2023-04-21T12:36:31;10.55;;;3.67;;
52868;SDS011;39100;53.480;6.158;2023-04-21T12:38:56;9.15;;;4.05;;
52868;SDS011;39100;53.480;6.158;2023-04-21T12:41:22;6.60;;;3.50;;
52868;SDS011;39100;53.480;6.158;2023-04-21T12:43:48;7.88;;;3.80;;
52868;SDS011;39100;53.480;6.158;2023-04-21T12:46:13;8.15;;;3.55;;
52868;SDS011;39100;53.480;6.158;2023-04-21T12:48:40;9.20;;;3.90;;
52868;SDS011;39100;53.480;6.158;2023-04-21T12:51:05;10.75;;;3.10;;
52868;SDS011;39100;53.480;6.158;2023-04-21T12:53:31;8.80;;;3.35;;
52868;SDS011;39100;53.480;6.158;2023-04-21T12:55:56;5.80;;;2.83;;
52868;SDS011;39100;53.480;6.158;2023-04-21T12:58:22;7.32;;;3.78;;
52868;SDS011;39100;53.480;6.158;2023-04-21T13:00:47;9.60;;;3.65;;
52868;SDS011;39100;53.480;6.158;2023-04-21T13:03:13;9.65;;;3.88;;
52868;SDS011;39100;53.480;6.158;2023-04-21T13:05:39;10.18;;;3.90;;
52868;SDS011;39100;53.480;6.158;2023-04-21T13:08:04;7.80;;;3.45;;
52868;SDS011;39100;53.480;6.158;2023-04-21T13:10:30;9.40;;;3.85;;
52868;SDS011;39100;53.480;6.158;2023-04-21T13:12:56;9.00;;;4.10;;
52868;SDS011;39100;53.480;6.158;2023-04-21T13:15:21;5.70;;;2.83;;
52868;SDS011;39100;53.480;6.158;2023-04-21T13:17:47;6.75;;;3.25;;
52868;SDS011;39100;53.480;6.158;2023-04-21T13:20:13;11.68;;;3.80;;
52868;SDS011;39100;53.480;6.158;2023-04-21T13:22:38;7.03;;;3.22;;
52868;SDS011;39100;53.480;6.158;2023-04-21T13:25:04;10.65;;;3.67;;
52868;SDS011;39100;53.480;6.158;2023-04-21T13:27:30;6.43;;;3.47;;
52868;SDS011;39100;53.480;6.158;2023-04-21T13:29:57;7.03;;;3.47;;
52868;SDS011;39100;53.480;6.158;2023-04-21T13:32:22;10.10;;;3.70;;
52868;SDS011;39100;53.480;6.158;2023-04-21T13:34:48;7.90;;;4.07;;
52868;SDS011;39100;53.480;6.158;2023-04-21T13:37:14;10.90;;;4.05;;
52868;SDS011;39100;53.480;6.158;2023-04-21T13:39:41;12.65;;;5.13;;
52868;SDS011;39100;53.480;6.158;2023-04-21T13:42:07;11.80;;;5.10;;
52868;SDS011;39100;53.480;6.158;2023-04-21T13:44:32;12.43;;;5.43;;
52868;SDS011;39100;53.480;6.158;2023-04-21T13:46:58;10.45;;;5.35;;
52868;SDS011;39100;53.480;6.158;2023-04-21T13:49:24;11.45;;;5.28;;
52868;SDS011;39100;53.480;6.158;2023-04-21T13:51:49;9.75;;;5.03;;
52868;SDS011;39100;53.480;6.158;2023-04-21T13:54:15;12.27;;;5.85;;
52868;SDS011;39100;53.480;6.158;2023-04-21T13:56:41;14.25;;;4.82;;
52868;SDS011;39100;53.480;6.158;2023-04-21T13:59:06;12.68;;;5.38;;
52868;SDS011;39100;53.480;6.158;2023-04-21T14:01:34;10.98;;;5.10;;
52868;SDS011;39100;53.480;6.158;2023-04-21T14:04:00;13.48;;;4.80;;
52868;SDS011;39100;53.480;6.158;2023-04-21T14:06:26;12.90;;;5.35;;
52868;SDS011;39100;53.480;6.158;2023-04-21T14:08:52;13.63;;;4.78;;
52868;SDS011;39100;53.480;6.158;2023-04-21T14:11:17;12.75;;;4.60;;
52868;SDS011;39100;53.480;6.158;2023-04-21T14:13:43;10.85;;;4.57;;
52868;SDS011;39100;53.480;6.158;2023-04-21T14:16:09;14.52;;;5.95;;
52868;SDS011;39100;53.480;6.158;2023-04-21T14:18:34;7.45;;;4.60;;
52868;SDS011;39100;53.480;6.158;2023-04-21T14:21:02;13.48;;;6.50;;
52868;SDS011;39100;53.480;6.158;2023-04-21T14:23:27;9.23;;;4.90;;
52868;SDS011;39100;53.480;6.158;2023-04-21T14:25:53;8.88;;;4.43;;
52868;SDS011;39100;53.480;6.158;2023-04-21T14:28:18;8.80;;;4.43;;
52868;SDS011;39100;53.480;6.158;2023-04-21T14:30:44;9.48;;;4.60;;
52868;SDS011;39100;53.480;6.158;2023-04-21T14:33:10;9.85;;;4.32;;
52868;SDS011;39100;53.480;6.158;2023-04-21T14:35:36;10.65;;;4.07;;
52868;SDS011;39100;53.480;6.158;2023-04-21T14:38:01;9.00;;;5.07;;
52868;SDS011;39100;53.480;6.158;2023-04-21T14:40:27;13.20;;;4.95;;